createdAt,value
2019-01-21T00:00:23.923Z,14.30
2019-01-21T00:02:50.463Z,14.30
2019-01-21T00:05:17.299Z,14.30
2019-01-21T00:07:43.892Z,14.30
2019-01-21T00:10:10.680Z,14.30
2019-01-21T00:12:37.219Z,14.30
2019-01-21T00:15:04.051Z,14.30
2019-01-21T00:17:30.590Z,14.30
2019-01-21T00:19:57.120Z,14.30
2019-01-21T00:22:23.657Z,14.30
2019-01-21T00:24:50.191Z,14.30
2019-01-21T00:27:17.031Z,14.30
2019-01-21T00:29:44.539Z,14.30
2019-01-21T00:32:11.331Z,14.30
2019-01-21T00:34:38.171Z,14.30
2019-01-21T00:37:04.989Z,14.30
2019-01-21T00:39:31.999Z,14.30
2019-01-21T00:41:58.695Z,14.30
2019-01-21T00:44:25.230Z,14.30
2019-01-21T00:46:51.769Z,14.30
2019-01-21T00:49:18.308Z,14.30
2019-01-21T00:51:45.141Z,14.30
2019-01-21T00:54:11.985Z,14.30
2019-01-21T00:56:38.519Z,14.30
2019-01-21T00:59:05.054Z,14.30
2019-01-21T01:01:31.896Z,14.30
2019-01-21T01:03:58.736Z,14.30
2019-01-21T01:06:25.277Z,14.30
2019-01-21T01:08:52.110Z,14.30
2019-01-21T01:11:18.646Z,14.20
2019-01-21T01:13:45.166Z,14.20
2019-01-21T01:16:12.024Z,14.30
2019-01-21T01:18:38.865Z,14.30
2019-01-21T01:21:05.705Z,14.20
2019-01-21T01:23:32.553Z,14.30
2019-01-21T01:25:59.083Z,14.20
2019-01-21T01:28:25.928Z,14.20
2019-01-21T01:30:52.457Z,14.20
2019-01-21T01:33:19.300Z,14.20
2019-01-21T01:35:45.834Z,14.20
2019-01-21T01:38:12.678Z,14.20
2019-01-21T01:40:39.520Z,14.20
2019-01-21T01:43:06.051Z,14.20
2019-01-21T01:45:33.205Z,14.20
2019-01-21T01:48:00.047Z,14.20
2019-01-21T01:50:26.889Z,14.20
2019-01-21T01:52:53.481Z,14.20
2019-01-21T01:55:20.263Z,14.20
2019-01-21T01:57:46.797Z,14.20
2019-01-21T02:00:13.329Z,14.20
2019-01-21T02:02:40.171Z,14.20
2019-01-21T02:05:06.713Z,14.20
2019-01-21T02:07:33.240Z,14.20
2019-01-21T02:10:00.236Z,14.20
2019-01-21T02:12:27.231Z,14.20
2019-01-21T02:14:54.076Z,14.20
2019-01-21T02:17:20.608Z,14.20
2019-01-21T02:19:47.141Z,14.20
2019-01-21T02:22:13.989Z,14.20
2019-01-21T02:24:40.518Z,14.20
2019-01-21T02:27:07.364Z,14.20
2019-01-21T02:29:33.897Z,14.20
2019-01-21T02:32:00.736Z,14.20
2019-01-21T02:34:27.580Z,14.20
2019-01-21T02:36:54.421Z,14.20
2019-01-21T02:39:20.955Z,14.10
2019-01-21T02:41:47.796Z,14.10
2019-01-21T02:44:14.330Z,14.20
2019-01-21T02:46:41.480Z,14.20
2019-01-21T02:49:08.322Z,14.20
2019-01-21T02:51:34.864Z,14.10
2019-01-21T02:54:01.401Z,14.10
2019-01-21T02:56:28.018Z,14.10
2019-01-21T02:58:54.770Z,14.10
2019-01-21T03:01:21.300Z,14.10
2019-01-21T03:03:47.835Z,14.10
2019-01-21T03:06:14.430Z,14.10
2019-01-21T03:08:41.212Z,14.10
2019-01-21T03:11:07.759Z,14.10
2019-01-21T03:13:34.590Z,14.10
2019-01-21T03:16:01.122Z,14.10
2019-01-21T03:18:27.967Z,14.10
2019-01-21T03:20:54.806Z,14.10
2019-01-21T03:23:21.341Z,14.10
2019-01-21T03:25:47.876Z,14.10
2019-01-21T03:28:14.717Z,14.10
2019-01-21T03:30:41.254Z,14.10
2019-01-21T03:33:08.729Z,14.10
2019-01-21T03:35:35.549Z,14.10
2019-01-21T03:38:02.083Z,14.10
2019-01-21T03:40:28.618Z,14.10
2019-01-21T03:42:55.155Z,14.10
2019-01-21T03:45:21.994Z,14.10
2019-01-21T03:47:48.533Z,14.10
2019-01-21T03:50:15.064Z,14.10
2019-01-21T03:52:41.927Z,14.10
2019-01-21T03:55:08.750Z,14.10
2019-01-21T03:57:35.290Z,14.10
2019-01-21T04:00:01.817Z,14.10
2019-01-21T04:02:28.659Z,14.10
2019-01-21T04:04:56.114Z,14.10
2019-01-21T04:07:22.958Z,14.10
2019-01-21T04:09:49.493Z,14.10
2019-01-21T04:12:16.024Z,14.10
2019-01-21T04:14:42.560Z,14.00
2019-01-21T04:17:09.401Z,14.00
2019-01-21T04:19:36.241Z,14.00
2019-01-21T04:22:03.085Z,14.10
2019-01-21T04:24:29.934Z,14.00
2019-01-21T04:26:56.466Z,14.00
2019-01-21T04:29:22.998Z,14.00
2019-01-21T04:31:49.526Z,14.00
2019-01-21T04:34:16.186Z,14.00
2019-01-21T04:36:42.920Z,14.10
2019-01-21T04:39:09.754Z,14.00
2019-01-21T04:41:36.287Z,14.00
2019-01-21T04:44:03.125Z,14.00
2019-01-21T04:46:29.658Z,14.00
2019-01-21T04:48:56.197Z,14.00
2019-01-21T04:51:23.347Z,14.00
2019-01-21T04:53:49.877Z,14.00
2019-01-21T04:56:16.717Z,14.00
2019-01-21T04:58:43.251Z,14.00
2019-01-21T05:01:10.120Z,14.00
2019-01-21T05:03:36.936Z,14.00
2019-01-21T05:06:03.469Z,14.00
2019-01-21T05:08:30.312Z,14.00
2019-01-21T05:10:57.158Z,14.00
2019-01-21T05:13:23.687Z,14.00
2019-01-21T05:15:50.227Z,14.00
2019-01-21T05:18:17.067Z,14.00
2019-01-21T05:20:43.905Z,14.00
2019-01-21T05:23:10.747Z,14.00
2019-01-21T05:25:37.590Z,14.00
2019-01-21T05:28:04.126Z,14.00
2019-01-21T05:30:30.659Z,14.00
2019-01-21T05:32:57.500Z,14.00
2019-01-21T05:35:24.034Z,14.00
2019-01-21T05:37:50.875Z,14.00
2019-01-21T05:40:17.718Z,14.00
2019-01-21T05:42:44.258Z,14.00
2019-01-21T05:45:10.786Z,14.00
2019-01-21T05:47:37.629Z,14.00
2019-01-21T05:50:04.164Z,13.90
2019-01-21T05:52:31.004Z,13.90
2019-01-21T05:54:57.542Z,14.00
2019-01-21T05:57:24.381Z,13.90
2019-01-21T05:59:50.918Z,13.90
2019-01-21T06:02:17.534Z,14.00
2019-01-21T06:04:44.291Z,13.90
2019-01-21T06:07:10.829Z,13.90
2019-01-21T06:09:37.667Z,13.90
2019-01-21T06:12:04.509Z,14.00
2019-01-21T06:14:31.044Z,13.90
2019-01-21T06:16:57.579Z,13.90
2019-01-21T06:19:24.420Z,13.90
2019-01-21T06:21:51.263Z,14.00
2019-01-21T06:24:17.796Z,14.00
2019-01-21T06:26:44.336Z,13.90
2019-01-21T06:29:11.175Z,13.90
2019-01-21T06:31:37.709Z,13.90
2019-01-21T06:34:04.240Z,13.90
2019-01-21T06:36:31.083Z,13.90
2019-01-21T06:38:57.925Z,13.90
2019-01-21T06:41:24.766Z,13.90
2019-01-21T06:43:51.302Z,13.90
2019-01-21T06:46:18.152Z,13.90
2019-01-21T06:48:44.986Z,13.90
2019-01-21T06:51:11.522Z,13.90
2019-01-21T06:53:38.364Z,13.90
2019-01-21T06:56:05.202Z,13.90
2019-01-21T06:58:31.736Z,13.90
2019-01-21T07:00:58.578Z,13.90
2019-01-21T07:03:25.115Z,13.90
2019-01-21T07:05:51.647Z,13.90
2019-01-21T07:08:18.491Z,13.90
2019-01-21T07:10:45.023Z,13.90
2019-01-21T07:13:11.866Z,13.90
2019-01-21T07:15:38.411Z,13.90
2019-01-21T07:18:04.934Z,13.90
2019-01-21T07:20:31.471Z,13.90
2019-01-21T07:22:58.004Z,13.90
2019-01-21T07:25:24.844Z,13.90
2019-01-21T07:27:51.386Z,13.90
2019-01-21T07:30:17.924Z,13.90
2019-01-21T07:32:44.755Z,13.90
2019-01-21T07:35:11.601Z,13.90
2019-01-21T07:37:38.132Z,13.90
2019-01-21T07:40:04.666Z,13.90
2019-01-21T07:42:31.507Z,13.90
2019-01-21T07:44:58.045Z,13.90
2019-01-21T07:47:24.884Z,13.90
2019-01-21T07:49:51.727Z,13.90
2019-01-21T07:52:18.566Z,13.90
2019-01-21T07:54:45.102Z,13.90
2019-01-21T07:57:11.973Z,13.90
2019-01-21T07:59:38.486Z,13.90
2019-01-21T08:02:05.323Z,13.90
2019-01-21T08:04:31.855Z,13.90
2019-01-21T08:06:58.741Z,13.90
2019-01-21T08:09:25.541Z,13.90
2019-01-21T08:11:52.810Z,13.90
2019-01-21T08:14:19.860Z,13.90
2019-01-21T08:16:46.679Z,13.90
2019-01-21T08:19:13.212Z,13.90
2019-01-21T08:21:40.057Z,13.90
2019-01-21T08:24:06.894Z,13.90
2019-01-21T08:26:33.432Z,13.90
2019-01-21T08:29:00.275Z,13.90
2019-01-21T08:31:27.114Z,13.90
2019-01-21T08:33:54.189Z,13.90
2019-01-21T08:36:21.417Z,13.90
2019-01-21T08:38:48.260Z,13.90
2019-01-21T08:41:15.093Z,13.90
2019-01-21T08:43:41.632Z,13.90
2019-01-21T08:46:08.165Z,13.80
2019-01-21T08:48:35.006Z,13.90
2019-01-21T08:51:01.877Z,13.80
2019-01-21T08:53:28.688Z,13.90
2019-01-21T08:55:55.226Z,13.90
2019-01-21T08:58:22.086Z,13.90
2019-01-21T09:00:49.088Z,13.90
2019-01-21T09:03:16.080Z,13.90
2019-01-21T09:05:42.926Z,13.90
2019-01-21T09:08:09.431Z,13.90
2019-01-21T09:10:35.952Z,13.80
2019-01-21T09:13:02.808Z,13.90
2019-01-21T09:15:29.650Z,13.90
2019-01-21T09:17:56.503Z,13.80
2019-01-21T09:20:23.355Z,13.90
2019-01-21T09:22:50.190Z,13.90
2019-01-21T09:25:17.035Z,13.90
2019-01-21T09:27:43.879Z,13.90
2019-01-21T09:30:10.711Z,13.90
2019-01-21T09:32:37.614Z,13.90
2019-01-21T09:35:04.405Z,13.90
2019-01-21T09:37:31.226Z,13.90
2019-01-21T09:39:58.068Z,13.90
2019-01-21T09:42:24.603Z,13.90
2019-01-21T09:44:51.135Z,13.90
2019-01-21T09:47:17.671Z,13.90
2019-01-21T09:49:44.512Z,13.90
2019-01-21T09:52:11.049Z,13.90
2019-01-21T09:54:37.891Z,13.90
2019-01-21T09:57:04.421Z,13.90
2019-01-21T09:59:30.957Z,13.90
2019-01-21T10:01:57.798Z,13.90
2019-01-21T10:04:24.392Z,13.90
2019-01-21T10:06:51.174Z,13.90
2019-01-21T10:09:18.087Z,13.90
2019-01-21T10:11:44.858Z,13.90
2019-01-21T10:14:12.174Z,13.90
2019-01-21T10:16:38.854Z,13.90
2019-01-21T10:19:05.389Z,13.90
2019-01-21T10:21:31.917Z,13.90
2019-01-21T10:23:58.759Z,13.90
2019-01-21T10:26:25.607Z,13.90
2019-01-21T10:28:52.448Z,13.90
2019-01-21T10:31:18.962Z,13.90
2019-01-21T10:33:45.821Z,13.90
2019-01-21T10:36:12.354Z,13.90
2019-01-21T10:38:38.892Z,13.90
2019-01-21T10:41:05.732Z,13.90
2019-01-21T10:43:32.264Z,13.90
2019-01-21T10:45:58.800Z,13.90
2019-01-21T10:48:25.338Z,13.90
2019-01-21T10:50:51.872Z,13.90
2019-01-21T10:53:18.402Z,13.90
2019-01-21T10:55:45.245Z,13.90
2019-01-21T10:58:11.779Z,13.90
2019-01-21T11:00:38.619Z,13.80
2019-01-21T11:03:05.156Z,13.90
2019-01-21T11:05:31.693Z,13.90
2019-01-21T11:07:58.532Z,13.90
2019-01-21T11:10:25.070Z,13.90
2019-01-21T11:12:51.600Z,13.90
2019-01-21T11:15:18.143Z,13.90
2019-01-21T11:17:44.976Z,13.90
2019-01-21T11:20:11.511Z,13.90
2019-01-21T11:22:38.045Z,13.90
2019-01-21T11:25:04.583Z,14.00
2019-01-21T11:27:31.115Z,14.00
2019-01-21T11:29:57.956Z,14.00
2019-01-21T11:32:24.798Z,14.10
2019-01-21T11:34:51.639Z,14.10
2019-01-21T11:37:18.174Z,14.00
2019-01-21T11:39:44.707Z,14.00
2019-01-21T11:42:11.551Z,14.00
2019-01-21T11:44:38.084Z,14.00
2019-01-21T11:47:04.635Z,14.00
2019-01-21T11:49:31.461Z,13.90
2019-01-21T11:51:57.995Z,13.90
2019-01-21T11:54:24.836Z,13.90
2019-01-21T11:56:51.379Z,13.90
2019-01-21T11:59:18.213Z,13.90
2019-01-21T12:01:44.756Z,13.90
2019-01-21T12:04:11.283Z,13.90
2019-01-21T12:06:38.124Z,13.90
2019-01-21T12:09:04.658Z,13.90
2019-01-21T12:11:32.122Z,13.90
2019-01-21T12:13:58.649Z,13.90
2019-01-21T12:16:25.494Z,13.90
2019-01-21T12:18:52.028Z,13.90
2019-01-21T12:21:18.562Z,13.90
2019-01-21T12:23:45.097Z,13.90
2019-01-21T12:26:11.631Z,13.90
2019-01-21T12:28:38.476Z,13.90
2019-01-21T12:31:05.231Z,13.90
2019-01-21T12:33:31.863Z,13.90
2019-01-21T12:35:58.382Z,13.80
2019-01-21T12:38:25.223Z,13.90
2019-01-21T12:40:52.070Z,13.90
2019-01-21T12:43:18.598Z,13.90
2019-01-21T12:45:45.441Z,13.80
2019-01-21T12:48:11.976Z,13.90
2019-01-21T12:50:38.515Z,13.80
2019-01-21T12:53:05.147Z,13.80
2019-01-21T12:55:31.886Z,13.80
2019-01-21T12:57:58.423Z,13.80
2019-01-21T13:00:24.955Z,13.80
2019-01-21T13:02:51.529Z,13.80
2019-01-21T13:05:18.126Z,13.80
2019-01-21T13:07:44.871Z,13.80
2019-01-21T13:10:11.708Z,13.80
2019-01-21T13:12:38.241Z,13.80
2019-01-21T13:15:04.776Z,13.80
2019-01-21T13:17:31.617Z,13.80
2019-01-21T13:19:58.152Z,13.80
2019-01-21T13:22:24.994Z,13.80
2019-01-21T13:24:51.835Z,13.80
2019-01-21T13:27:18.382Z,13.80
2019-01-21T13:29:45.217Z,13.80
2019-01-21T13:32:12.223Z,13.80
2019-01-21T13:34:38.895Z,13.80
2019-01-21T13:37:05.763Z,13.80
2019-01-21T13:39:32.579Z,13.80
2019-01-21T13:41:59.115Z,13.80
2019-01-21T13:44:25.954Z,13.80
2019-01-21T13:46:52.805Z,13.80
2019-01-21T13:49:19.332Z,13.80
2019-01-21T13:51:46.173Z,13.80
2019-01-21T13:54:12.707Z,13.80
2019-01-21T13:56:39.551Z,13.80
2019-01-21T13:59:06.087Z,13.80
2019-01-21T14:01:32.949Z,13.80
2019-01-21T14:03:59.922Z,13.70
2019-01-21T14:06:26.645Z,13.80
2019-01-21T14:08:53.449Z,13.70
2019-01-21T14:11:20.322Z,13.70
2019-01-21T14:13:47.152Z,13.80
2019-01-21T14:16:14.317Z,13.70
2019-01-21T14:18:41.146Z,13.70
2019-01-21T14:21:07.997Z,13.70
2019-01-21T14:23:35.358Z,13.70
2019-01-21T14:26:02.282Z,13.70
2019-01-21T14:28:29.118Z,13.70
2019-01-21T14:30:56.149Z,13.70
2019-01-21T14:33:23.112Z,13.70
2019-01-21T14:35:49.975Z,13.70
2019-01-21T14:38:17.470Z,13.70
2019-01-21T14:40:44.227Z,13.70
2019-01-21T14:43:11.078Z,13.70
2019-01-21T14:45:37.857Z,13.70
2019-01-21T14:48:04.763Z,13.70
2019-01-21T14:50:31.604Z,13.70
2019-01-21T14:52:58.139Z,13.70
2019-01-21T14:55:24.996Z,13.70
2019-01-21T14:57:51.513Z,13.70
2019-01-21T15:00:18.042Z,13.70
2019-01-21T15:02:44.584Z,13.70
2019-01-21T15:05:11.438Z,13.70
2019-01-21T15:07:38.266Z,13.70
2019-01-21T15:10:05.160Z,13.70
2019-01-21T15:12:31.956Z,13.70
2019-01-21T15:14:58.829Z,13.70
2019-01-21T15:17:25.632Z,13.70
2019-01-21T15:19:52.517Z,13.70
2019-01-21T15:22:19.401Z,13.70
2019-01-21T15:24:46.238Z,13.70
2019-01-21T15:27:13.003Z,13.70
2019-01-21T15:29:39.853Z,13.60
2019-01-21T15:32:06.730Z,13.60
2019-01-21T15:34:33.524Z,13.60
2019-01-21T15:37:00.386Z,13.60
2019-01-21T15:39:27.289Z,13.60
2019-01-21T15:41:54.053Z,13.60
2019-01-21T15:44:20.891Z,13.60
2019-01-21T15:46:47.754Z,13.60
2019-01-21T15:49:14.270Z,13.60
2019-01-21T15:51:41.110Z,13.60
2019-01-21T15:54:07.953Z,13.60
2019-01-21T15:56:34.854Z,13.60
2019-01-21T15:59:01.634Z,13.60
2019-01-21T16:01:28.479Z,13.60
2019-01-21T16:03:55.318Z,13.60
2019-01-21T16:06:22.168Z,13.60
2019-01-21T16:08:48.699Z,13.60
2019-01-21T16:11:15.229Z,13.60
2019-01-21T16:13:41.763Z,13.60
2019-01-21T16:16:08.605Z,13.60
2019-01-21T16:18:35.447Z,13.60
2019-01-21T16:21:02.288Z,13.60
2019-01-21T16:23:28.823Z,13.60
2019-01-21T16:25:55.360Z,13.60
2019-01-21T16:28:21.891Z,13.60
2019-01-21T16:30:48.746Z,13.60
2019-01-21T16:33:15.267Z,13.60
2019-01-21T16:35:42.110Z,13.60
2019-01-21T16:38:08.644Z,13.60
2019-01-21T16:40:35.793Z,13.60
2019-01-21T16:43:02.641Z,13.60
2019-01-21T16:45:29.484Z,13.60
2019-01-21T16:47:56.317Z,13.60
2019-01-21T16:50:23.159Z,13.60
2019-01-21T16:52:50.002Z,13.60
2019-01-21T16:55:16.847Z,13.60
2019-01-21T16:57:43.378Z,13.60
2019-01-21T17:00:10.220Z,13.60
2019-01-21T17:02:36.755Z,13.60
2019-01-21T17:05:03.288Z,13.60
2019-01-21T17:07:29.833Z,13.50
2019-01-21T17:09:56.358Z,13.60
2019-01-21T17:12:23.200Z,13.60
2019-01-21T17:14:57.114Z,13.60
2019-01-21T17:17:18.115Z,13.60
2019-01-21T17:19:44.646Z,13.60
2019-01-21T17:22:11.181Z,13.50
2019-01-21T17:24:37.714Z,13.50
2019-01-21T17:27:04.556Z,13.60
2019-01-21T17:29:31.399Z,13.60
2019-01-21T17:31:57.933Z,13.60
2019-01-21T17:34:24.467Z,13.50
2019-01-21T17:36:51.001Z,13.50
2019-01-21T17:39:17.543Z,13.60
2019-01-21T17:41:44.378Z,13.50
2019-01-21T17:44:10.927Z,13.50
2019-01-21T17:46:37.451Z,13.50
2019-01-21T17:49:03.981Z,13.50
2019-01-21T17:51:34.311Z,13.60
2019-01-21T17:53:58.894Z,13.50
2019-01-21T17:56:25.428Z,13.50
2019-01-21T17:58:51.962Z,13.50
2019-01-21T18:01:18.842Z,13.50
2019-01-21T18:03:45.654Z,13.50
2019-01-21T18:06:12.187Z,13.50
2019-01-21T18:08:39.023Z,13.50
2019-01-21T18:11:05.575Z,13.50
2019-01-21T18:13:32.092Z,13.50
2019-01-21T18:15:58.627Z,13.50
2019-01-21T18:18:25.471Z,13.50
2019-01-21T18:20:52.003Z,13.50
2019-01-21T18:23:18.845Z,13.50
2019-01-21T18:25:45.381Z,13.50
2019-01-21T18:28:12.221Z,13.50
2019-01-21T18:30:38.758Z,13.50
2019-01-21T18:33:05.599Z,13.50
2019-01-21T18:35:32.152Z,13.50
2019-01-21T18:37:58.768Z,13.50
2019-01-21T18:40:25.512Z,13.50
2019-01-21T18:42:52.046Z,13.50
2019-01-21T18:45:18.885Z,13.50
2019-01-21T18:47:45.724Z,13.50
2019-01-21T18:50:12.873Z,13.50
2019-01-21T18:52:39.411Z,13.50
2019-01-21T18:55:05.947Z,13.50
2019-01-21T18:57:33.973Z,13.50
2019-01-21T19:00:00.855Z,13.50
2019-01-21T19:02:27.696Z,13.50
2019-01-21T19:04:54.233Z,13.50
2019-01-21T19:07:21.115Z,13.50
2019-01-21T19:09:47.712Z,13.50
2019-01-21T19:12:14.458Z,13.50
2019-01-21T19:14:41.290Z,13.50
2019-01-21T19:17:08.133Z,13.50
2019-01-21T19:19:34.671Z,13.50
2019-01-21T19:22:01.204Z,13.50
2019-01-21T19:24:27.744Z,13.50
2019-01-21T19:26:54.578Z,13.50
2019-01-21T19:29:21.440Z,13.40
2019-01-21T19:31:47.955Z,13.50
2019-01-21T19:34:14.491Z,13.40
2019-01-21T19:36:41.330Z,13.40
2019-01-21T19:39:07.869Z,13.40
2019-01-21T19:41:34.406Z,13.40
2019-01-21T19:44:00.934Z,13.40
2019-01-21T19:46:27.530Z,13.40
2019-01-21T19:48:54.310Z,13.40
2019-01-21T19:51:20.843Z,13.40
2019-01-21T19:53:47.388Z,13.40
2019-01-21T19:56:14.222Z,13.40
2019-01-21T19:58:40.755Z,13.40
2019-01-21T20:01:07.596Z,13.40
2019-01-21T20:03:34.438Z,13.40
2019-01-21T20:06:00.973Z,13.40
2019-01-21T20:08:27.814Z,13.40
2019-01-21T20:10:54.348Z,13.40
2019-01-21T20:13:20.887Z,13.40
2019-01-21T20:15:47.426Z,13.40
2019-01-21T20:18:13.952Z,13.40
2019-01-21T20:20:40.821Z,13.40
2019-01-21T20:23:07.331Z,13.40
2019-01-21T20:25:33.865Z,13.40
2019-01-21T20:28:00.707Z,13.40
2019-01-21T20:30:27.244Z,13.40
2019-01-21T20:32:54.084Z,13.40
2019-01-21T20:35:20.926Z,13.40
2019-01-21T20:37:47.499Z,13.40
2019-01-21T20:40:14.607Z,13.40
2019-01-21T20:42:41.810Z,13.40
2019-01-21T20:45:08.595Z,13.40
2019-01-21T20:47:35.131Z,13.40
2019-01-21T20:50:01.973Z,13.40
2019-01-21T20:52:28.814Z,13.40
2019-01-21T20:54:55.712Z,13.40
2019-01-21T20:57:22.549Z,13.40
2019-01-21T20:59:49.340Z,13.40
2019-01-21T21:02:16.069Z,13.40
2019-01-21T21:04:42.733Z,13.40
2019-01-21T21:07:09.557Z,13.40
2019-01-21T21:09:36.092Z,13.40
2019-01-21T21:12:02.934Z,13.30
2019-01-21T21:14:29.775Z,13.40
2019-01-21T21:16:56.616Z,13.40
2019-01-21T21:19:23.459Z,13.40
2019-01-21T21:21:50.301Z,13.40
2019-01-21T21:24:16.847Z,13.40
2019-01-21T21:26:43.676Z,13.40
2019-01-21T21:29:10.211Z,13.40
2019-01-21T21:31:36.750Z,13.40
2019-01-21T21:34:03.282Z,13.40
2019-01-21T21:36:30.429Z,13.40
2019-01-21T21:38:57.271Z,13.40
2019-01-21T21:41:24.113Z,13.40
2019-01-21T21:43:50.647Z,13.40
2019-01-21T21:46:17.488Z,13.40
2019-01-21T21:48:44.337Z,13.40
2019-01-21T21:51:10.868Z,13.40
2019-01-21T21:53:37.706Z,13.30
2019-01-21T21:56:04.548Z,13.30
2019-01-21T21:58:31.389Z,13.40
2019-01-21T22:00:58.230Z,13.30
2019-01-21T22:03:25.083Z,13.30
2019-01-21T22:05:51.613Z,13.30
2019-01-21T22:08:18.449Z,13.30
2019-01-21T22:10:44.984Z,13.30
2019-01-21T22:13:11.826Z,13.30
2019-01-21T22:15:38.673Z,13.30
2019-01-21T22:18:05.509Z,13.30
2019-01-21T22:20:32.356Z,13.30
2019-01-21T22:22:59.285Z,13.30
2019-01-21T22:25:26.038Z,13.30
2019-01-21T22:27:52.875Z,13.30
2019-01-21T22:30:19.412Z,13.30
2019-01-21T22:32:46.251Z,13.30
2019-01-21T22:35:13.093Z,13.30
2019-01-21T22:37:39.935Z,13.30
2019-01-21T22:40:06.795Z,13.30
2019-01-21T22:42:33.621Z,13.30
2019-01-21T22:45:00.314Z,13.30
2019-01-21T22:47:26.996Z,13.30
2019-01-21T22:49:53.840Z,13.30
2019-01-21T22:52:20.678Z,13.30
2019-01-21T22:54:47.833Z,13.30
2019-01-21T22:57:14.365Z,13.30
2019-01-21T22:59:41.437Z,13.30
2019-01-21T23:02:08.048Z,13.30
2019-01-21T23:04:34.582Z,13.30
2019-01-21T23:07:01.421Z,13.30
2019-01-21T23:09:28.571Z,13.30
2019-01-21T23:11:55.107Z,13.30
2019-01-21T23:14:21.946Z,13.30
2019-01-21T23:16:48.788Z,13.30
2019-01-21T23:19:15.629Z,13.30
2019-01-21T23:21:42.164Z,13.30
2019-01-21T23:24:08.698Z,13.30
2019-01-21T23:26:35.850Z,13.30
2019-01-21T23:29:02.384Z,13.30
2019-01-21T23:31:29.226Z,13.30
2019-01-21T23:33:55.759Z,13.30
2019-01-21T23:36:22.599Z,13.30
2019-01-21T23:38:49.134Z,13.30
2019-01-21T23:41:16.284Z,13.30
2019-01-21T23:43:43.125Z,13.30
2019-01-21T23:46:09.971Z,13.30
2019-01-21T23:48:36.502Z,13.20
2019-01-21T23:51:03.130Z,13.30
2019-01-21T23:53:29.877Z,13.30
2019-01-21T23:55:56.413Z,13.30
2019-01-21T23:58:23.254Z,13.30
